sensor_id;sensor_type;location;lat;lon;timestamp;temperature;humidity
74376;HTU21D;62812;55.188;61.302;2024-01-30T00:00:43;-6.13;71.75
74376;HTU21D;62812;55.188;61.302;2024-01-30T00:03:18;-6.19;72.51
74376;HTU21D;62812;55.188;61.302;2024-01-30T00:05:47;-6.23;72.54
74376;HTU21D;62812;55.188;61.302;2024-01-30T00:08:14;-6.27;72.47
74376;HTU21D;62812;55.188;61.302;2024-01-30T00:10:41;-6.33;72.70
74376;HTU21D;62812;55.188;61.302;2024-01-30T00:13:08;-6.39;72.59
74376;HTU21D;62812;55.188;61.302;2024-01-30T00:15:34;-6.48;72.67
74376;HTU21D;62812;55.188;61.302;2024-01-30T00:18:01;-6.50;72.99
74376;HTU21D;62812;55.188;61.302;2024-01-30T00:20:29;-6.56;73.21
74376;HTU21D;62812;55.188;61.302;2024-01-30T00:22:57;-6.57;73.28
74376;HTU21D;62812;55.188;61.302;2024-01-30T00:25:24;-6.59;73.96
74376;HTU21D;62812;55.188;61.302;2024-01-30T00:27:51;-6.61;73.48
74376;HTU21D;62812;55.188;61.302;2024-01-30T00:30:18;-6.60;73.07
74376;HTU21D;62812;55.188;61.302;2024-01-30T00:32:44;-6.67;72.45
74376;HTU21D;62812;55.188;61.302;2024-01-30T00:35:12;-6.70;73.42
74376;HTU21D;62812;55.188;61.302;2024-01-30T00:37:38;-6.71;73.32
74376;HTU21D;62812;55.188;61.302;2024-01-30T00:40:08;-6.73;74.41
74376;HTU21D;62812;55.188;61.302;2024-01-30T00:42:36;-6.74;74.56
74376;HTU21D;62812;55.188;61.302;2024-01-30T00:45:04;-6.72;74.70
74376;HTU21D;62812;55.188;61.302;2024-01-30T00:47:30;-6.70;73.47
74376;HTU21D;62812;55.188;61.302;2024-01-30T00:49:59;-6.70;73.73
74376;HTU21D;62812;55.188;61.302;2024-01-30T00:52:26;-6.73;73.19
74376;HTU21D;62812;55.188;61.302;2024-01-30T00:54:52;-6.79;72.69
74376;HTU21D;62812;55.188;61.302;2024-01-30T00:57:21;-6.82;72.70
74376;HTU21D;62812;55.188;61.302;2024-01-30T00:59:47;-6.87;72.96
74376;HTU21D;62812;55.188;61.302;2024-01-30T01:02:14;-6.94;73.06
74376;HTU21D;62812;55.188;61.302;2024-01-30T01:04:43;-7.01;72.73
74376;HTU21D;62812;55.188;61.302;2024-01-30T01:07:10;-7.07;72.80
74376;HTU21D;62812;55.188;61.302;2024-01-30T01:09:37;-7.13;73.56
74376;HTU21D;62812;55.188;61.302;2024-01-30T01:12:05;-7.18;74.17
74376;HTU21D;62812;55.188;61.302;2024-01-30T01:14:34;-7.23;73.22
74376;HTU21D;62812;55.188;61.302;2024-01-30T01:17:01;-7.26;73.36
74376;HTU21D;62812;55.188;61.302;2024-01-30T01:19:29;-7.32;72.28
74376;HTU21D;62812;55.188;61.302;2024-01-30T01:21:56;-7.37;72.96
74376;HTU21D;62812;55.188;61.302;2024-01-30T01:24:23;-7.44;72.52
74376;HTU21D;62812;55.188;61.302;2024-01-30T01:26:50;-7.50;73.17
74376;HTU21D;62812;55.188;61.302;2024-01-30T01:29:17;-7.56;73.92
74376;HTU21D;62812;55.188;61.302;2024-01-30T01:31:45;-7.60;73.54
74376;HTU21D;62812;55.188;61.302;2024-01-30T01:34:13;-7.63;73.64
74376;HTU21D;62812;55.188;61.302;2024-01-30T01:36:40;-7.65;73.36
74376;HTU21D;62812;55.188;61.302;2024-01-30T01:39:06;-7.70;72.95
74376;HTU21D;62812;55.188;61.302;2024-01-30T01:41:33;-7.74;74.20
74376;HTU21D;62812;55.188;61.302;2024-01-30T01:44:01;-7.70;75.15
74376;HTU21D;62812;55.188;61.302;2024-01-30T01:46:27;-7.70;73.82
74376;HTU21D;62812;55.188;61.302;2024-01-30T01:48:57;-7.67;74.85
74376;HTU21D;62812;55.188;61.302;2024-01-30T01:51:27;-7.67;75.68
74376;HTU21D;62812;55.188;61.302;2024-01-30T01:53:54;-7.67;75.60
74376;HTU21D;62812;55.188;61.302;2024-01-30T01:56:22;-7.69;74.53
74376;HTU21D;62812;55.188;61.302;2024-01-30T01:58:50;-7.76;73.96
74376;HTU21D;62812;55.188;61.302;2024-01-30T02:01:19;-7.82;74.53
74376;HTU21D;62812;55.188;61.302;2024-01-30T02:03:46;-7.82;74.66
74376;HTU21D;62812;55.188;61.302;2024-01-30T02:06:16;-7.82;74.67
74376;HTU21D;62812;55.188;61.302;2024-01-30T02:08:43;-7.80;74.52
74376;HTU21D;62812;55.188;61.302;2024-01-30T02:11:10;-7.79;74.46
74376;HTU21D;62812;55.188;61.302;2024-01-30T02:13:37;-7.83;74.38
74376;HTU21D;62812;55.188;61.302;2024-01-30T02:16:05;-7.90;74.60
74376;HTU21D;62812;55.188;61.302;2024-01-30T02:18:32;-7.93;74.62
74376;HTU21D;62812;55.188;61.302;2024-01-30T02:21:19;-7.98;74.73
74376;HTU21D;62812;55.188;61.302;2024-01-30T02:23:47;-8.07;74.67
74376;HTU21D;62812;55.188;61.302;2024-01-30T02:26:15;-8.14;74.57
74376;HTU21D;62812;55.188;61.302;2024-01-30T02:28:42;-8.19;75.02
74376;HTU21D;62812;55.188;61.302;2024-01-30T02:31:09;-8.19;75.25
74376;HTU21D;62812;55.188;61.302;2024-01-30T02:33:36;-8.19;75.76
74376;HTU21D;62812;55.188;61.302;2024-01-30T02:36:03;-8.15;75.76
74376;HTU21D;62812;55.188;61.302;2024-01-30T02:38:34;-8.12;76.07
74376;HTU21D;62812;55.188;61.302;2024-01-30T02:41:01;-8.09;75.73
74376;HTU21D;62812;55.188;61.302;2024-01-30T02:43:30;-8.09;75.27
74376;HTU21D;62812;55.188;61.302;2024-01-30T02:46:00;-8.09;75.02
74376;HTU21D;62812;55.188;61.302;2024-01-30T02:48:28;-8.12;74.57
74376;HTU21D;62812;55.188;61.302;2024-01-30T02:50:55;-8.15;74.37
74376;HTU21D;62812;55.188;61.302;2024-01-30T02:53:22;-8.19;75.33
74376;HTU21D;62812;55.188;61.302;2024-01-30T02:55:50;-8.21;74.92
74376;HTU21D;62812;55.188;61.302;2024-01-30T02:58:17;-8.23;74.68
74376;HTU21D;62812;55.188;61.302;2024-01-30T03:00:56;-8.24;74.50
74376;HTU21D;62812;55.188;61.302;2024-01-30T03:03:23;-8.27;74.84
74376;HTU21D;62812;55.188;61.302;2024-01-30T03:05:50;-8.28;74.72
74376;HTU21D;62812;55.188;61.302;2024-01-30T03:08:18;-8.29;74.79
74376;HTU21D;62812;55.188;61.302;2024-01-30T03:10:48;-8.37;74.95
74376;HTU21D;62812;55.188;61.302;2024-01-30T03:13:17;-8.45;75.39
74376;HTU21D;62812;55.188;61.302;2024-01-30T03:15:43;-8.46;75.02
74376;HTU21D;62812;55.188;61.302;2024-01-30T03:18:10;-8.51;74.76
74376;HTU21D;62812;55.188;61.302;2024-01-30T03:20:37;-8.57;75.70
74376;HTU21D;62812;55.188;61.302;2024-01-30T03:23:04;-8.68;76.00
74376;HTU21D;62812;55.188;61.302;2024-01-30T03:25:31;-8.75;76.28
74376;HTU21D;62812;55.188;61.302;2024-01-30T03:27:58;-8.81;76.10
74376;HTU21D;62812;55.188;61.302;2024-01-30T03:30:26;-8.80;76.15
74376;HTU21D;62812;55.188;61.302;2024-01-30T03:32:53;-8.78;75.41
74376;HTU21D;62812;55.188;61.302;2024-01-30T03:35:22;-8.73;75.41
74376;HTU21D;62812;55.188;61.302;2024-01-30T03:37:49;-8.68;74.89
74376;HTU21D;62812;55.188;61.302;2024-01-30T03:40:16;-8.64;74.78
74376;HTU21D;62812;55.188;61.302;2024-01-30T03:42:43;-8.65;74.62
74376;HTU21D;62812;55.188;61.302;2024-01-30T03:45:10;-8.69;74.38
74376;HTU21D;62812;55.188;61.302;2024-01-30T03:47:38;-8.79;74.88
74376;HTU21D;62812;55.188;61.302;2024-01-30T03:50:05;-8.79;74.64
74376;HTU21D;62812;55.188;61.302;2024-01-30T03:52:32;-8.83;74.60
74376;HTU21D;62812;55.188;61.302;2024-01-30T03:55:01;-8.80;74.57
74376;HTU21D;62812;55.188;61.302;2024-01-30T03:57:28;-8.82;74.24
74376;HTU21D;62812;55.188;61.302;2024-01-30T03:59:55;-8.90;74.06
74376;HTU21D;62812;55.188;61.302;2024-01-30T04:02:25;-8.89;74.10
74376;HTU21D;62812;55.188;61.302;2024-01-30T04:04:53;-8.90;73.64
74376;HTU21D;62812;55.188;61.302;2024-01-30T04:07:26;-8.97;73.91
74376;HTU21D;62812;55.188;61.302;2024-01-30T04:09:52;-9.01;73.93
74376;HTU21D;62812;55.188;61.302;2024-01-30T04:12:20;-9.01;74.47
74376;HTU21D;62812;55.188;61.302;2024-01-30T04:14:47;-8.97;74.24
74376;HTU21D;62812;55.188;61.302;2024-01-30T04:17:14;-8.99;73.88
74376;HTU21D;62812;55.188;61.302;2024-01-30T04:19:41;-9.04;73.91
74376;HTU21D;62812;55.188;61.302;2024-01-30T04:22:09;-9.05;75.09
74376;HTU21D;62812;55.188;61.302;2024-01-30T04:24:38;-9.02;73.54
74376;HTU21D;62812;55.188;61.302;2024-01-30T04:27:11;-8.96;73.81
74376;HTU21D;62812;55.188;61.302;2024-01-30T04:29:38;-8.90;73.19
74376;HTU21D;62812;55.188;61.302;2024-01-30T04:32:05;-8.92;73.64
74376;HTU21D;62812;55.188;61.302;2024-01-30T04:34:32;-8.87;73.38
74376;HTU21D;62812;55.188;61.302;2024-01-30T04:36:59;-8.81;73.79
74376;HTU21D;62812;55.188;61.302;2024-01-30T04:39:28;-8.72;73.73
74376;HTU21D;62812;55.188;61.302;2024-01-30T04:41:54;-8.64;74.42
74376;HTU21D;62812;55.188;61.302;2024-01-30T04:44:21;-8.49;74.51
74376;HTU21D;62812;55.188;61.302;2024-01-30T04:46:48;-8.33;74.93
74376;HTU21D;62812;55.188;61.302;2024-01-30T04:49:14;-8.20;73.34
74376;HTU21D;62812;55.188;61.302;2024-01-30T04:51:41;-8.09;73.73
74376;HTU21D;62812;55.188;61.302;2024-01-30T04:54:08;-7.93;73.45
74376;HTU21D;62812;55.188;61.302;2024-01-30T04:56:36;-7.79;73.12
74376;HTU21D;62812;55.188;61.302;2024-01-30T04:59:03;-7.63;72.65
74376;HTU21D;62812;55.188;61.302;2024-01-30T05:01:29;-7.51;72.23
74376;HTU21D;62812;55.188;61.302;2024-01-30T05:03:56;-7.42;71.48
74376;HTU21D;62812;55.188;61.302;2024-01-30T05:06:26;-7.41;71.34
74376;HTU21D;62812;55.188;61.302;2024-01-30T05:08:53;-7.39;70.84
74376;HTU21D;62812;55.188;61.302;2024-01-30T05:11:19;-7.39;71.16
74376;HTU21D;62812;55.188;61.302;2024-01-30T05:13:47;-7.36;71.61
74376;HTU21D;62812;55.188;61.302;2024-01-30T05:16:14;-7.32;71.66
74376;HTU21D;62812;55.188;61.302;2024-01-30T05:18:40;-7.26;71.52
74376;HTU21D;62812;55.188;61.302;2024-01-30T05:21:07;-7.18;71.60
74376;HTU21D;62812;55.188;61.302;2024-01-30T05:23:33;-7.10;71.35
74376;HTU21D;62812;55.188;61.302;2024-01-30T05:26:00;-7.00;70.99
74376;HTU21D;62812;55.188;61.302;2024-01-30T05:28:28;-6.89;70.91
74376;HTU21D;62812;55.188;61.302;2024-01-30T05:30:56;-6.81;70.64
74376;HTU21D;62812;55.188;61.302;2024-01-30T05:33:22;-6.74;70.45
74376;HTU21D;62812;55.188;61.302;2024-01-30T05:35:49;-6.65;70.42
74376;HTU21D;62812;55.188;61.302;2024-01-30T05:38:16;-6.58;70.06
74376;HTU21D;62812;55.188;61.302;2024-01-30T05:40:43;-6.49;70.09
74376;HTU21D;62812;55.188;61.302;2024-01-30T05:43:09;-6.44;69.35
74376;HTU21D;62812;55.188;61.302;2024-01-30T05:45:36;-6.49;69.21
74376;HTU21D;62812;55.188;61.302;2024-01-30T05:48:05;-6.53;69.54
74376;HTU21D;62812;55.188;61.302;2024-01-30T05:50:31;-6.50;69.83
74376;HTU21D;62812;55.188;61.302;2024-01-30T05:52:58;-6.46;69.67
74376;HTU21D;62812;55.188;61.302;2024-01-30T05:55:24;-6.43;69.66
74376;HTU21D;62812;55.188;61.302;2024-01-30T05:57:51;-6.39;69.62
74376;HTU21D;62812;55.188;61.302;2024-01-30T06:00:19;-6.34;69.63
74376;HTU21D;62812;55.188;61.302;2024-01-30T06:02:45;-6.29;69.26
74376;HTU21D;62812;55.188;61.302;2024-01-30T06:05:13;-6.24;69.28
74376;HTU21D;62812;55.188;61.302;2024-01-30T06:07:40;-6.20;69.07
74376;HTU21D;62812;55.188;61.302;2024-01-30T06:10:08;-6.15;68.81
74376;HTU21D;62812;55.188;61.302;2024-01-30T06:12:35;-6.08;69.10
74376;HTU21D;62812;55.188;61.302;2024-01-30T06:15:01;-6.04;68.65
74376;HTU21D;62812;55.188;61.302;2024-01-30T06:17:28;-6.01;68.66
74376;HTU21D;62812;55.188;61.302;2024-01-30T06:19:55;-5.99;68.64
74376;HTU21D;62812;55.188;61.302;2024-01-30T06:22:23;-5.96;68.70
74376;HTU21D;62812;55.188;61.302;2024-01-30T06:24:49;-5.91;68.93
74376;HTU21D;62812;55.188;61.302;2024-01-30T06:27:16;-5.87;68.61
74376;HTU21D;62812;55.188;61.302;2024-01-30T06:29:43;-5.84;68.59
74376;HTU21D;62812;55.188;61.302;2024-01-30T06:32:12;-5.76;68.21
74376;HTU21D;62812;55.188;61.302;2024-01-30T06:34:38;-5.72;67.94
74376;HTU21D;62812;55.188;61.302;2024-01-30T06:37:06;-5.68;67.77
74376;HTU21D;62812;55.188;61.302;2024-01-30T06:39:34;-5.64;67.60
74376;HTU21D;62812;55.188;61.302;2024-01-30T06:42:00;-5.60;67.50
74376;HTU21D;62812;55.188;61.302;2024-01-30T06:44:26;-5.58;67.31
74376;HTU21D;62812;55.188;61.302;2024-01-30T06:46:53;-5.52;67.17
74376;HTU21D;62812;55.188;61.302;2024-01-30T06:49:20;-5.48;67.15
74376;HTU21D;62812;55.188;61.302;2024-01-30T06:51:49;-5.40;67.33
74376;HTU21D;62812;55.188;61.302;2024-01-30T06:54:15;-5.39;66.94
74376;HTU21D;62812;55.188;61.302;2024-01-30T06:56:43;-5.29;67.19
74376;HTU21D;62812;55.188;61.302;2024-01-30T06:59:10;-5.24;66.73
74376;HTU21D;62812;55.188;61.302;2024-01-30T07:01:36;-5.17;66.38
74376;HTU21D;62812;55.188;61.302;2024-01-30T07:04:03;-5.13;66.12
74376;HTU21D;62812;55.188;61.302;2024-01-30T07:06:30;-5.08;66.25
74376;HTU21D;62812;55.188;61.302;2024-01-30T07:08:56;-5.00;66.01
74376;HTU21D;62812;55.188;61.302;2024-01-30T07:11:23;-4.90;65.64
74376;HTU21D;62812;55.188;61.302;2024-01-30T07:13:51;-4.83;65.45
74376;HTU21D;62812;55.188;61.302;2024-01-30T07:16:21;-4.75;65.27
74376;HTU21D;62812;55.188;61.302;2024-01-30T07:18:48;-4.66;64.79
74376;HTU21D;62812;55.188;61.302;2024-01-30T07:21:15;-4.58;64.66
74376;HTU21D;62812;55.188;61.302;2024-01-30T07:23:42;-4.51;65.21
74376;HTU21D;62812;55.188;61.302;2024-01-30T07:26:11;-4.39;63.63
74376;HTU21D;62812;55.188;61.302;2024-01-30T07:28:43;-4.30;63.57
74376;HTU21D;62812;55.188;61.302;2024-01-30T07:31:14;-4.26;63.52
74376;HTU21D;62812;55.188;61.302;2024-01-30T07:33:41;-4.25;63.56
74376;HTU21D;62812;55.188;61.302;2024-01-30T07:36:08;-4.20;63.48
74376;HTU21D;62812;55.188;61.302;2024-01-30T07:38:36;-4.15;63.46
74376;HTU21D;62812;55.188;61.302;2024-01-30T07:41:03;-4.19;63.21
74376;HTU21D;62812;55.188;61.302;2024-01-30T07:43:30;-4.12;63.37
74376;HTU21D;62812;55.188;61.302;2024-01-30T07:45:57;-4.13;63.14
74376;HTU21D;62812;55.188;61.302;2024-01-30T07:48:37;-4.09;63.02
74376;HTU21D;62812;55.188;61.302;2024-01-30T07:54:25;-4.00;63.18
74376;HTU21D;62812;55.188;61.302;2024-01-30T07:57:06;-3.97;62.82
74376;HTU21D;62812;55.188;61.302;2024-01-30T07:59:35;-3.94;63.01
74376;HTU21D;62812;55.188;61.302;2024-01-30T08:02:01;-3.86;63.02
74376;HTU21D;62812;55.188;61.302;2024-01-30T08:04:31;-3.80;62.82
74376;HTU21D;62812;55.188;61.302;2024-01-30T08:06:58;-3.76;62.88
74376;HTU21D;62812;55.188;61.302;2024-01-30T08:09:27;-3.65;63.01
74376;HTU21D;62812;55.188;61.302;2024-01-30T08:11:54;-3.57;62.97
74376;HTU21D;62812;55.188;61.302;2024-01-30T08:14:20;-3.55;62.94
74376;HTU21D;62812;55.188;61.302;2024-01-30T08:16:47;-3.55;62.50
74376;HTU21D;62812;55.188;61.302;2024-01-30T08:19:19;-3.55;62.67
74376;HTU21D;62812;55.188;61.302;2024-01-30T08:21:47;-3.58;63.08
74376;HTU21D;62812;55.188;61.302;2024-01-30T08:24:23;-3.53;63.37
74376;HTU21D;62812;55.188;61.302;2024-01-30T08:26:50;-3.47;63.08
74376;HTU21D;62812;55.188;61.302;2024-01-30T08:29:36;-3.37;62.92
74376;HTU21D;62812;55.188;61.302;2024-01-30T08:32:09;-3.32;63.00
74376;HTU21D;62812;55.188;61.302;2024-01-30T08:34:36;-3.26;62.59
74376;HTU21D;62812;55.188;61.302;2024-01-30T08:37:03;-3.22;62.50
74376;HTU21D;62812;55.188;61.302;2024-01-30T08:39:31;-3.17;62.60
74376;HTU21D;62812;55.188;61.302;2024-01-30T08:41:58;-3.07;61.77
74376;HTU21D;62812;55.188;61.302;2024-01-30T08:44:25;-3.13;61.72
74376;HTU21D;62812;55.188;61.302;2024-01-30T08:46:57;-3.15;61.84
74376;HTU21D;62812;55.188;61.302;2024-01-30T08:49:24;-3.13;61.88
74376;HTU21D;62812;55.188;61.302;2024-01-30T08:51:50;-3.11;62.15
74376;HTU21D;62812;55.188;61.302;2024-01-30T08:54:18;-3.12;61.99
74376;HTU21D;62812;55.188;61.302;2024-01-30T08:56:45;-3.05;62.83
74376;HTU21D;62812;55.188;61.302;2024-01-30T09:03:11;-2.90;62.26
74376;HTU21D;62812;55.188;61.302;2024-01-30T09:05:45;-2.86;61.57
74376;HTU21D;62812;55.188;61.302;2024-01-30T09:08:37;-2.83;61.32
74376;HTU21D;62812;55.188;61.302;2024-01-30T09:14:39;-2.59;60.87
74376;HTU21D;62812;55.188;61.302;2024-01-30T09:17:15;-2.59;60.81
74376;HTU21D;62812;55.188;61.302;2024-01-30T09:20:07;-2.47;60.60
74376;HTU21D;62812;55.188;61.302;2024-01-30T09:22:35;-2.34;60.36
74376;HTU21D;62812;55.188;61.302;2024-01-30T09:25:02;-2.23;60.03
74376;HTU21D;62812;55.188;61.302;2024-01-30T09:27:32;-2.10;59.64
74376;HTU21D;62812;55.188;61.302;2024-01-30T09:30:00;-2.02;59.44
74376;HTU21D;62812;55.188;61.302;2024-01-30T09:32:27;-2.04;59.26
74376;HTU21D;62812;55.188;61.302;2024-01-30T09:34:56;-2.10;59.73
74376;HTU21D;62812;55.188;61.302;2024-01-30T09:37:25;-2.20;60.09
74376;HTU21D;62812;55.188;61.302;2024-01-30T09:39:52;-2.13;60.21
74376;HTU21D;62812;55.188;61.302;2024-01-30T09:42:27;-2.03;59.75
74376;HTU21D;62812;55.188;61.302;2024-01-30T09:45:26;-1.97;59.25
74376;HTU21D;62812;55.188;61.302;2024-01-30T09:47:54;-1.93;59.47
74376;HTU21D;62812;55.188;61.302;2024-01-30T09:50:20;-1.90;59.43
74376;HTU21D;62812;55.188;61.302;2024-01-30T09:52:48;-2.01;59.63
74376;HTU21D;62812;55.188;61.302;2024-01-30T09:55:16;-1.98;59.86
74376;HTU21D;62812;55.188;61.302;2024-01-30T09:57:43;-1.84;59.30
74376;HTU21D;62812;55.188;61.302;2024-01-30T10:00:12;-1.79;59.38
74376;HTU21D;62812;55.188;61.302;2024-01-30T10:02:43;-1.78;59.27
74376;HTU21D;62812;55.188;61.302;2024-01-30T10:05:15;-1.90;59.18
74376;HTU21D;62812;55.188;61.302;2024-01-30T10:07:53;-2.01;59.70
74376;HTU21D;62812;55.188;61.302;2024-01-30T10:10:26;-2.09;59.75
74376;HTU21D;62812;55.188;61.302;2024-01-30T10:12:57;-2.20;60.25
74376;HTU21D;62812;55.188;61.302;2024-01-30T10:15:26;-2.32;60.28
74376;HTU21D;62812;55.188;61.302;2024-01-30T10:18:00;-2.43;60.89
74376;HTU21D;62812;55.188;61.302;2024-01-30T10:20:27;-2.50;60.99
74376;HTU21D;62812;55.188;61.302;2024-01-30T10:22:54;-2.57;61.29
74376;HTU21D;62812;55.188;61.302;2024-01-30T10:25:29;-2.59;61.37
74376;HTU21D;62812;55.188;61.302;2024-01-30T10:28:09;-2.65;61.34
74376;HTU21D;62812;55.188;61.302;2024-01-30T10:31:17;-2.78;61.77
74376;HTU21D;62812;55.188;61.302;2024-01-30T10:34:09;-2.88;61.85
74376;HTU21D;62812;55.188;61.302;2024-01-30T10:36:40;-2.91;62.37
74376;HTU21D;62812;55.188;61.302;2024-01-30T10:39:12;-2.90;62.15
74376;HTU21D;62812;55.188;61.302;2024-01-30T10:41:47;-2.83;62.47
74376;HTU21D;62812;55.188;61.302;2024-01-30T10:44:19;-2.64;61.78
74376;HTU21D;62812;55.188;61.302;2024-01-30T10:47:11;-2.44;61.55
74376;HTU21D;62812;55.188;61.302;2024-01-30T10:54:13;-2.28;60.06
74376;HTU21D;62812;55.188;61.302;2024-01-30T10:56:40;-2.36;59.94
74376;HTU21D;62812;55.188;61.302;2024-01-30T10:59:16;-2.44;60.78
74376;HTU21D;62812;55.188;61.302;2024-01-30T11:05:28;-2.53;59.91
74376;HTU21D;62812;55.188;61.302;2024-01-30T11:08:26;-2.61;59.79
74376;HTU21D;62812;55.188;61.302;2024-01-30T11:17:40;-3.01;60.23
74376;HTU21D;62812;55.188;61.302;2024-01-30T11:20:15;-3.05;60.81
74376;HTU21D;62812;55.188;61.302;2024-01-30T11:25:52;-3.16;60.20
74376;HTU21D;62812;55.188;61.302;2024-01-30T11:28:35;-3.21;60.18
74376;HTU21D;62812;55.188;61.302;2024-01-30T11:31:37;-3.23;60.12
74376;HTU21D;62812;55.188;61.302;2024-01-30T11:34:22;-3.17;61.00
74376;HTU21D;62812;55.188;61.302;2024-01-30T11:37:17;-3.17;59.93
74376;HTU21D;62812;55.188;61.302;2024-01-30T11:40:27;-3.17;60.47
74376;HTU21D;62812;55.188;61.302;2024-01-30T11:43:13;-3.13;61.21
74376;HTU21D;62812;55.188;61.302;2024-01-30T11:45:54;-3.10;60.07
74376;HTU21D;62812;55.188;61.302;2024-01-30T11:48:30;-2.91;61.08
74376;HTU21D;62812;55.188;61.302;2024-01-30T11:51:02;-2.84;60.51
74376;HTU21D;62812;55.188;61.302;2024-01-30T11:53:28;-2.86;59.79
74376;HTU21D;62812;55.188;61.302;2024-01-30T11:56:06;-2.93;59.32
74376;HTU21D;62812;55.188;61.302;2024-01-30T12:02:09;-3.18;61.49
74376;HTU21D;62812;55.188;61.302;2024-01-30T12:04:43;-3.24;60.89
74376;HTU21D;62812;55.188;61.302;2024-01-30T12:07:20;-3.21;61.73
74376;HTU21D;62812;55.188;61.302;2024-01-30T12:09:56;-3.10;60.58
74376;HTU21D;62812;55.188;61.302;2024-01-30T12:12:28;-3.06;60.99
74376;HTU21D;62812;55.188;61.302;2024-01-30T12:15:01;-3.17;60.99
74376;HTU21D;62812;55.188;61.302;2024-01-30T12:17:31;-3.30;61.06
74376;HTU21D;62812;55.188;61.302;2024-01-30T12:20:05;-3.48;61.71
74376;HTU21D;62812;55.188;61.302;2024-01-30T12:22:36;-3.57;62.97
74376;HTU21D;62812;55.188;61.302;2024-01-30T12:25:04;-3.58;62.32
74376;HTU21D;62812;55.188;61.302;2024-01-30T12:27:31;-3.63;63.12
74376;HTU21D;62812;55.188;61.302;2024-01-30T12:30:01;-3.63;63.04
74376;HTU21D;62812;55.188;61.302;2024-01-30T12:32:28;-3.62;62.70
74376;HTU21D;62812;55.188;61.302;2024-01-30T12:34:55;-3.72;63.04
74376;HTU21D;62812;55.188;61.302;2024-01-30T12:37:24;-3.76;63.16
74376;HTU21D;62812;55.188;61.302;2024-01-30T12:39:53;-3.75;63.34
74376;HTU21D;62812;55.188;61.302;2024-01-30T12:42:24;-3.77;63.35
74376;HTU21D;62812;55.188;61.302;2024-01-30T12:44:56;-3.75;63.53
74376;HTU21D;62812;55.188;61.302;2024-01-30T12:47:23;-3.92;63.56
74376;HTU21D;62812;55.188;61.302;2024-01-30T12:50:09;-4.02;64.01
74376;HTU21D;62812;55.188;61.302;2024-01-30T12:52:39;-4.19;64.50
74376;HTU21D;62812;55.188;61.302;2024-01-30T12:55:07;-4.34;64.87
74376;HTU21D;62812;55.188;61.302;2024-01-30T12:57:36;-4.44;65.36
74376;HTU21D;62812;55.188;61.302;2024-01-30T13:00:06;-4.57;65.60
74376;HTU21D;62812;55.188;61.302;2024-01-30T13:02:35;-4.70;66.14
74376;HTU21D;62812;55.188;61.302;2024-01-30T13:05:03;-4.73;66.16
74376;HTU21D;62812;55.188;61.302;2024-01-30T13:07:30;-4.74;66.36
74376;HTU21D;62812;55.188;61.302;2024-01-30T13:09:57;-4.75;66.81
74376;HTU21D;62812;55.188;61.302;2024-01-30T13:12:31;-4.75;66.29
74376;HTU21D;62812;55.188;61.302;2024-01-30T13:15:01;-4.84;66.56
74376;HTU21D;62812;55.188;61.302;2024-01-30T13:17:28;-4.90;66.78
74376;HTU21D;62812;55.188;61.302;2024-01-30T13:19:54;-4.87;67.01
74376;HTU21D;62812;55.188;61.302;2024-01-30T13:22:21;-4.84;66.49
74376;HTU21D;62812;55.188;61.302;2024-01-30T13:24:48;-4.87;66.57
74376;HTU21D;62812;55.188;61.302;2024-01-30T13:27:14;-5.00;66.97
74376;HTU21D;62812;55.188;61.302;2024-01-30T13:29:42;-5.02;67.28
74376;HTU21D;62812;55.188;61.302;2024-01-30T13:32:09;-5.05;67.12
74376;HTU21D;62812;55.188;61.302;2024-01-30T13:34:36;-5.11;67.39
74376;HTU21D;62812;55.188;61.302;2024-01-30T13:37:02;-5.20;67.81
74376;HTU21D;62812;55.188;61.302;2024-01-30T13:39:29;-5.24;67.99
74376;HTU21D;62812;55.188;61.302;2024-01-30T13:41:56;-5.20;67.87
74376;HTU21D;62812;55.188;61.302;2024-01-30T13:44:23;-5.18;67.68
74376;HTU21D;62812;55.188;61.302;2024-01-30T13:46:51;-5.17;67.78
74376;HTU21D;62812;55.188;61.302;2024-01-30T13:49:18;-5.12;67.16
74376;HTU21D;62812;55.188;61.302;2024-01-30T13:51:45;-5.15;66.91
74376;HTU21D;62812;55.188;61.302;2024-01-30T13:54:12;-5.27;67.36
74376;HTU21D;62812;55.188;61.302;2024-01-30T13:56:39;-5.40;67.51
74376;HTU21D;62812;55.188;61.302;2024-01-30T13:59:05;-5.52;68.27
74376;HTU21D;62812;55.188;61.302;2024-01-30T14:01:34;-5.59;68.70
74376;HTU21D;62812;55.188;61.302;2024-01-30T14:04:02;-5.71;68.90
74376;HTU21D;62812;55.188;61.302;2024-01-30T14:06:28;-5.84;69.20
74376;HTU21D;62812;55.188;61.302;2024-01-30T14:08:55;-5.92;69.26
74376;HTU21D;62812;55.188;61.302;2024-01-30T14:11:22;-6.05;69.84
74376;HTU21D;62812;55.188;61.302;2024-01-30T14:13:52;-6.17;70.20
74376;HTU21D;62812;55.188;61.302;2024-01-30T14:16:18;-6.23;70.33
74376;HTU21D;62812;55.188;61.302;2024-01-30T14:18:46;-6.31;70.66
74376;HTU21D;62812;55.188;61.302;2024-01-30T14:21:14;-6.36;70.93
74376;HTU21D;62812;55.188;61.302;2024-01-30T14:23:40;-6.44;71.04
74376;HTU21D;62812;55.188;61.302;2024-01-30T14:26:07;-6.50;71.56
74376;HTU21D;62812;55.188;61.302;2024-01-30T14:28:43;-6.56;71.60
74376;HTU21D;62812;55.188;61.302;2024-01-30T14:31:10;-6.60;71.99
74376;HTU21D;62812;55.188;61.302;2024-01-30T14:33:37;-6.64;72.27
74376;HTU21D;62812;55.188;61.302;2024-01-30T14:36:17;-6.62;72.47
74376;HTU21D;62812;55.188;61.302;2024-01-30T14:39:51;-6.65;72.54
74376;HTU21D;62812;55.188;61.302;2024-01-30T14:42:18;-6.73;72.75
74376;HTU21D;62812;55.188;61.302;2024-01-30T14:44:45;-6.80;72.99
74376;HTU21D;62812;55.188;61.302;2024-01-30T14:47:11;-6.87;73.63
74376;HTU21D;62812;55.188;61.302;2024-01-30T14:49:39;-6.90;73.53
74376;HTU21D;62812;55.188;61.302;2024-01-30T14:52:10;-6.96;74.02
74376;HTU21D;62812;55.188;61.302;2024-01-30T14:54:42;-6.97;74.36
74376;HTU21D;62812;55.188;61.302;2024-01-30T14:57:12;-7.05;74.14
74376;HTU21D;62812;55.188;61.302;2024-01-30T14:59:40;-7.11;74.13
74376;HTU21D;62812;55.188;61.302;2024-01-30T15:02:07;-7.18;74.35
74376;HTU21D;62812;55.188;61.302;2024-01-30T15:04:35;-7.24;74.58
74376;HTU21D;62812;55.188;61.302;2024-01-30T15:07:02;-7.30;75.12
74376;HTU21D;62812;55.188;61.302;2024-01-30T15:09:30;-7.33;75.53
74376;HTU21D;62812;55.188;61.302;2024-01-30T15:11:58;-7.38;75.34
74376;HTU21D;62812;55.188;61.302;2024-01-30T15:14:36;-7.37;75.41
74376;HTU21D;62812;55.188;61.302;2024-01-30T15:17:10;-7.38;75.68
74376;HTU21D;62812;55.188;61.302;2024-01-30T15:27:10;-7.35;75.52
74376;HTU21D;62812;55.188;61.302;2024-01-30T15:29:39;-7.37;74.97
74376;HTU21D;62812;55.188;61.302;2024-01-30T15:44:06;-7.51;75.21
74376;HTU21D;62812;55.188;61.302;2024-01-30T15:47:02;-7.56;75.20
74376;HTU21D;62812;55.188;61.302;2024-01-30T15:49:29;-7.59;75.18
74376;HTU21D;62812;55.188;61.302;2024-01-30T15:51:59;-7.60;75.21
74376;HTU21D;62812;55.188;61.302;2024-01-30T15:54:33;-7.62;75.12
74376;HTU21D;62812;55.188;61.302;2024-01-30T15:57:12;-7.68;75.44
74376;HTU21D;62812;55.188;61.302;2024-01-30T15:59:47;-7.75;75.26
74376;HTU21D;62812;55.188;61.302;2024-01-30T16:02:15;-7.79;75.18
74376;HTU21D;62812;55.188;61.302;2024-01-30T16:04:56;-7.82;75.41
74376;HTU21D;62812;55.188;61.302;2024-01-30T16:07:23;-7.82;75.19
74376;HTU21D;62812;55.188;61.302;2024-01-30T16:09:49;-7.84;75.18